Time;durP1;ratioP1;P1;durP2;ratioP2;P2;SDS_P1;SDS_P2;PMS_P1;PMS_P2;Temp;Humidity;BMP_temperature;BMP_pressure;BME280_temperature;BME280_humidity;BME280_pressure;Samples;Min_cycle;Max_cycle;Signal;HPM_P1;HPM_P2
2021/12/30 00:01:28;;;;;;;35.63;7.97;;;;;;;9.63;100.00;101092.56;4843009;29;20117;-72
2021/12/30 00:03:54;;;;;;;36.83;8.48;;;;;;;9.62;100.00;101089.06;4842268;29;20022;-72
2021/12/30 00:06:22;;;;;;;37.95;8.73;;;;;;;9.67;100.00;101089.78;4827688;29;20061;-73
2021/12/30 00:08:50;;;;;;;38.45;8.50;;;;;;;9.69;100.00;101097.63;4838935;29;20065;-73
2021/12/30 00:11:15;;;;;;;39.10;8.63;;;;;;;9.69;100.00;101092.34;4842621;29;20030;-72
2021/12/30 00:13:45;;;;;;;35.33;7.90;;;;;;;9.72;100.00;101078.16;4842563;29;20399;-73
2021/12/30 00:16:12;;;;;;;35.53;8.00;;;;;;;9.69;100.00;101087.06;4842813;29;20116;-72
2021/12/30 00:18:37;;;;;;;41.33;9.45;;;;;;;9.73;100.00;101082.53;4842056;29;20026;-73
2021/12/30 00:21:03;;;;;;;42.28;8.73;;;;;;;9.75;100.00;101092.13;4842637;29;20077;-72
2021/12/30 00:23:28;;;;;;;37.65;8.38;;;;;;;9.75;100.00;101086.00;4842142;29;20098;-72
2021/12/30 00:25:53;;;;;;;34.80;6.85;;;;;;;9.77;100.00;101085.00;4842392;29;20034;-73
2021/12/30 00:28:21;;;;;;;43.47;8.25;;;;;;;9.78;100.00;101084.09;4842001;29;20068;-72
2021/12/30 00:30:48;;;;;;;48.22;8.55;;;;;;;9.80;100.00;101081.38;4842384;29;20041;-73
2021/12/30 00:33:14;;;;;;;40.70;7.53;;;;;;;9.81;100.00;101088.41;4842042;29;20036;-72
2021/12/30 00:35:39;;;;;;;42.35;8.30;;;;;;;9.84;100.00;101080.34;4842082;29;20113;-72
2021/12/30 00:38:05;;;;;;;35.92;7.57;;;;;;;9.88;100.00;101084.59;4842144;29;20072;-72
2021/12/30 00:40:32;;;;;;;34.13;7.18;;;;;;;9.92;100.00;101074.75;4841865;29;20398;-72
2021/12/30 00:42:59;;;;;;;40.22;7.60;;;;;;;9.97;100.00;101080.75;4842220;29;20514;-70
2021/12/30 00:45:28;;;;;;;35.70;7.82;;;;;;;9.97;100.00;101080.75;4841916;29;20034;-73
2021/12/30 00:47:54;;;;;;;40.50;7.82;;;;;;;10.00;100.00;101099.16;4842084;29;20066;-72
2021/12/30 00:50:20;;;;;;;36.38;8.77;;;;;;;10.04;100.00;101092.81;4841285;29;20060;-72
2021/12/30 00:52:45;;;;;;;31.85;7.82;;;;;;;10.09;100.00;101074.09;4841684;29;20549;-72
2021/12/30 00:55:12;;;;;;;32.92;7.43;;;;;;;10.10;100.00;101071.41;4841415;29;20125;-72
2021/12/30 00:57:38;;;;;;;33.50;8.25;;;;;;;10.19;100.00;101083.41;4837833;29;20030;-72
2021/12/30 01:00:10;;;;;;;30.30;7.97;;;;;;;10.22;100.00;101085.94;4825846;29;20042;-71
2021/12/30 01:02:36;;;;;;;39.00;7.00;;;;;;;10.29;100.00;101081.25;4841892;29;20025;-72
2021/12/30 01:05:01;;;;;;;32.58;8.07;;;;;;;10.32;100.00;101078.50;4841320;29;20414;-71
2021/12/30 01:07:26;;;;;;;30.25;7.88;;;;;;;10.35;100.00;101085.47;4842101;29;20038;-72
2021/12/30 01:09:52;;;;;;;33.40;7.75;;;;;;;10.40;100.00;101072.94;4841752;29;20034;-72
2021/12/30 01:12:19;;;;;;;29.20;8.68;;;;;;;10.43;100.00;101078.94;4841534;29;20018;-72
2021/12/30 01:14:47;;;;;;;28.77;8.15;;;;;;;10.44;100.00;101083.31;4841643;29;20030;-72
2021/12/30 01:17:22;;;;;;;29.77;9.32;;;;;;;10.44;100.00;101075.38;4842008;29;20244;-72
2021/12/30 01:19:50;;;;;;;30.02;9.38;;;;;;;10.47;100.00;101072.63;4841965;29;20034;-72
2021/12/30 01:22:21;;;;;;;34.22;10.35;;;;;;;10.45;100.00;101073.63;4841072;29;20030;-72
2021/12/30 01:24:47;;;;;;;33.05;9.82;;;;;;;10.46;100.00;101081.50;4841644;29;20066;-72
2021/12/30 01:27:13;;;;;;;37.63;10.23;;;;;;;10.45;100.00;101093.00;4841752;29;20033;-71
2021/12/30 01:29:38;;;;;;;39.17;11.55;;;;;;;10.41;100.00;101096.69;4841499;29;20490;-72
2021/12/30 01:32:04;;;;;;;31.42;10.60;;;;;;;10.40;100.00;101115.28;4839672;29;20163;-72
2021/12/30 01:34:31;;;;;;;37.63;11.55;;;;;;;10.41;100.00;101111.69;4841599;29;20030;-72
2021/12/30 01:37:00;;;;;;;34.15;10.68;;;;;;;10.42;100.00;101118.72;4841428;29;20034;-71
2021/12/30 01:39:25;;;;;;;31.30;10.45;;;;;;;10.41;100.00;101128.47;4841560;29;20034;-72
2021/12/30 01:41:51;;;;;;;36.72;11.25;;;;;;;10.40;100.00;101139.13;4841305;29;20036;-72
2021/12/30 01:44:17;;;;;;;34.00;10.90;;;;;;;10.43;100.00;101149.56;4841185;29;20551;-72
2021/12/30 01:46:44;;;;;;;37.97;11.38;;;;;;;10.44;100.00;101143.38;4841709;29;20042;-71
2021/12/30 01:49:11;;;;;;;35.30;10.90;;;;;;;10.41;100.00;101141.72;4842347;29;20026;-72
2021/12/30 01:51:37;;;;;;;35.47;11.10;;;;;;;10.41;100.00;101136.41;4844118;29;20771;-72
2021/12/30 01:54:06;;;;;;;33.63;10.93;;;;;;;10.42;100.00;101132.84;4844853;29;20133;-72
2021/12/30 01:56:32;;;;;;;34.67;10.35;;;;;;;10.46;100.00;101141.50;4845314;29;20100;-72
2021/12/30 01:58:57;;;;;;;35.40;11.13;;;;;;;10.45;100.00;101145.94;4845048;29;20504;-71
2021/12/30 02:01:24;;;;;;;32.47;9.70;;;;;;;10.48;100.00;101134.38;4844807;29;20124;-71
2021/12/30 02:03:49;;;;;;;32.38;10.65;;;;;;;10.49;100.00;101130.81;4844372;29;20474;-72
2021/12/30 02:06:15;;;;;;;35.10;10.55;;;;;;;10.50;100.00;101143.13;4844117;29;20111;-72
2021/12/30 02:08:40;;;;;;;28.80;9.60;;;;;;;10.53;100.00;101145.66;4844660;29;20045;-72
2021/12/30 02:11:05;;;;;;;26.58;8.85;;;;;;;10.57;100.00;101139.28;4845060;29;20116;-72
2021/12/30 02:13:31;;;;;;;33.30;10.35;;;;;;;10.57;100.00;101138.44;4844441;29;20518;-72
2021/12/30 02:16:01;;;;;;;29.25;9.50;;;;;;;10.62;100.00;101136.47;4844379;29;20037;-71
2021/12/30 02:18:26;;;;;;;28.38;8.88;;;;;;;10.61;100.00;101127.69;4844445;29;20030;-72
2021/12/30 02:20:59;;;;;;;29.23;9.45;;;;;;;10.66;100.00;101119.53;4844680;29;20045;-71
2021/12/30 02:23:27;;;;;;;25.85;9.18;;;;;;;10.70;100.00;101120.28;4843661;29;20490;-72
2021/12/30 02:25:57;;;;;;;31.70;9.38;;;;;;;10.74;100.00;101130.69;4844505;29;20137;-72
2021/12/30 02:28:25;;;;;;;27.58;9.38;;;;;;;10.77;100.00;101129.69;4844499;29;20026;-72
2021/12/30 02:30:53;;;;;;;21.55;7.85;;;;;;;10.79;100.00;101135.78;4844457;29;20034;-72
2021/12/30 02:33:18;;;;;;;19.27;8.00;;;;;;;10.79;100.00;101139.31;4843989;29;20073;-72
2021/12/30 02:35:43;;;;;;;18.42;7.47;;;;;;;10.79;100.00;101149.91;4844163;29;20117;-72
2021/12/30 02:38:09;;;;;;;22.80;8.15;;;;;;;10.86;100.00;101154.94;4844118;29;20505;-72
2021/12/30 02:40:44;;;;;;;19.08;7.97;;;;;;;10.92;100.00;101142.31;4844579;29;20041;-72
2021/12/30 02:43:14;;;;;;;17.98;7.43;;;;;;;11.01;100.00;101148.13;4844454;29;20026;-72
2021/12/30 02:45:40;;;;;;;14.77;6.72;;;;;;;11.05;100.00;101163.84;4843662;29;20555;-72
2021/12/30 02:48:11;;;;;;;14.35;6.63;;;;;;;11.09;100.00;101159.31;4844293;29;20038;-70
2021/12/30 02:50:37;;;;;;;17.25;7.65;;;;;;;11.12;100.00;101153.84;4844375;29;20070;-71
2021/12/30 02:53:02;;;;;;;13.43;6.20;;;;;;;11.14;100.00;101152.88;4844303;29;20038;-72
2021/12/30 02:55:27;;;;;;;14.23;6.57;;;;;;;11.11;100.00;101145.06;4843287;29;20462;-72
2021/12/30 02:57:53;;;;;;;16.55;7.55;;;;;;;11.10;100.00;101147.75;4842587;29;20038;-70
2021/12/30 03:00:18;;;;;;;15.23;6.78;;;;;;;11.14;100.00;101146.72;4843240;29;20030;-72
2021/12/30 03:02:43;;;;;;;17.90;7.72;;;;;;;11.13;100.00;101155.59;4843697;29;20428;-72
2021/12/30 03:05:15;;;;;;;19.92;7.55;;;;;;;11.17;100.00;101143.91;4843671;29;20117;-72
2021/12/30 03:07:40;;;;;;;15.93;7.68;;;;;;;11.20;100.00;101150.88;4843882;29;20037;-71
2021/12/30 03:10:18;;;;;;;21.30;8.27;;;;;;;11.15;100.00;101144.00;4843506;29;20062;-72
2021/12/30 03:12:44;;;;;;;20.35;8.00;;;;;;;11.18;100.00;101139.47;4843921;29;20041;-72
2021/12/30 03:15:13;;;;;;;21.63;7.50;;;;;;;11.17;100.00;101133.31;4843254;29;20383;-72
2021/12/30 03:17:39;;;;;;;24.08;8.57;;;;;;;11.17;100.00;101137.78;4842095;29;20475;-72
2021/12/30 03:20:09;;;;;;;21.83;8.10;;;;;;;11.16;100.00;101123.63;4843651;29;20045;-72
2021/12/30 03:22:38;;;;;;;22.25;8.85;;;;;;;11.18;100.00;101148.31;4843771;29;20383;-72
2021/12/30 03:25:08;;;;;;;20.35;8.50;;;;;;;11.18;100.00;101142.13;4843348;29;20391;-72
2021/12/30 03:27:34;;;;;;;19.77;8.52;;;;;;;11.16;100.00;101144.84;4842676;29;20497;-72
2021/12/30 03:30:00;;;;;;;21.92;9.30;;;;;;;11.15;100.00;101151.06;4843413;29;20038;-71
2021/12/30 03:32:25;;;;;;;25.70;8.40;;;;;;;11.13;100.00;101144.97;4843586;29;20571;-72
2021/12/30 03:34:51;;;;;;;25.23;8.18;;;;;;;11.09;100.00;101144.25;4843353;29;20379;-72
2021/12/30 03:37:16;;;;;;;26.23;9.05;;;;;;;11.11;100.00;101138.88;4843317;29;20088;-72
2021/12/30 03:39:41;;;;;;;26.40;8.35;;;;;;;11.11;100.00;101145.06;4843104;29;20030;-72
2021/12/30 03:42:07;;;;;;;27.25;8.63;;;;;;;11.13;100.00;101152.94;4843500;29;20032;-71
2021/12/30 03:44:33;;;;;;;28.15;10.43;;;;;;;11.10;100.00;101148.63;4843165;29;20113;-72
2021/12/30 03:46:58;;;;;;;25.98;8.98;;;;;;;11.13;100.00;101166.19;4843151;29;20026;-71
2021/12/30 03:49:24;;;;;;;24.73;9.32;;;;;;;11.13;100.00;101166.19;4842687;29;20034;-72
2021/12/30 03:51:51;;;;;;;23.75;9.30;;;;;;;11.12;100.00;101177.72;4843143;29;20030;-72
2021/12/30 03:54:17;;;;;;;26.45;9.35;;;;;;;11.10;100.00;101172.47;4842969;29;20038;-72
2021/12/30 03:56:43;;;;;;;19.50;9.07;;;;;;;11.08;100.00;101171.66;4842326;29;20093;-72
2021/12/30 03:59:09;;;;;;;22.05;8.82;;;;;;;11.14;100.00;101175.88;4842604;29;20032;-71
2021/12/30 04:01:35;;;;;;;20.00;8.23;;;;;;;11.13;100.00;101163.53;4843008;29;20026;-72
2021/12/30 04:04:01;;;;;;;20.35;8.30;;;;;;;11.13;100.00;101153.78;4843050;29;20129;-72
2021/12/30 04:06:27;;;;;;;21.67;9.07;;;;;;;11.18;100.00;101161.56;4842726;29;20125;-72
2021/12/30 04:08:54;;;;;;;19.27;7.53;;;;;;;11.21;100.00;101155.25;4833554;29;20054;-72
2021/12/30 04:11:22;;;;;;;15.00;7.15;;;;;;;11.22;100.00;101149.03;4837423;29;20034;-72
2021/12/30 04:13:48;;;;;;;17.27;7.57;;;;;;;11.24;100.00;101163.94;4842573;29;20050;-72
2021/12/30 04:16:13;;;;;;;13.88;6.40;;;;;;;11.22;100.00;101162.28;4843000;29;20144;-72
2021/12/30 04:18:39;;;;;;;17.38;7.25;;;;;;;11.27;100.00;101169.09;4842469;29;20471;-71
2021/12/30 04:21:04;;;;;;;24.75;7.07;;;;;;;11.21;100.00;101169.38;4842516;29;20038;-72
2021/12/30 04:23:29;;;;;;;17.52;6.05;;;;;;;11.27;100.00;101166.47;4842443;29;20052;-71
2021/12/30 04:25:55;;;;;;;19.60;6.45;;;;;;;11.28;100.00;101152.28;4842193;29;20113;-72
2021/12/30 04:28:20;;;;;;;11.68;4.53;;;;;;;11.34;100.00;101174.16;4842251;29;20174;-72
2021/12/30 04:30:46;;;;;;;14.27;4.65;;;;;;;11.33;100.00;101173.31;4842312;29;20416;-72
2021/12/30 04:33:11;;;;;;;19.60;5.35;;;;;;;11.34;100.00;101171.50;4842296;29;20455;-72
2021/12/30 04:35:37;;;;;;;15.13;5.22;;;;;;;11.31;100.00;101153.94;4842434;29;20436;-71
2021/12/30 04:38:02;;;;;;;19.63;5.85;;;;;;;11.34;100.00;101174.16;4842636;29;20038;-71
2021/12/30 04:40:28;;;;;;;18.63;6.40;;;;;;;11.34;100.00;101153.78;4841831;29;20029;-71
2021/12/30 04:42:53;;;;;;;16.58;5.53;;;;;;;11.34;100.00;101156.44;4841956;29;20061;-72
2021/12/30 04:45:19;;;;;;;21.42;5.70;;;;;;;11.35;100.00;101174.09;4842085;29;20034;-71
2021/12/30 04:47:44;;;;;;;13.77;4.97;;;;;;;11.35;100.00;101157.31;4842312;29;20038;-72
2021/12/30 04:50:12;;;;;;;12.15;4.40;;;;;;;11.36;100.00;101172.31;4841999;29;20041;-72
2021/12/30 04:52:38;;;;;;;14.68;4.93;;;;;;;11.37;100.00;101160.75;4840551;29;20033;-70
2021/12/30 04:55:04;;;;;;;11.82;4.15;;;;;;;11.33;100.00;101160.06;4842153;29;20026;-71
2021/12/30 04:57:30;;;;;;;11.13;4.68;;;;;;;11.33;100.00;101152.09;4842065;29;20094;-71
2021/12/30 04:59:55;;;;;;;15.93;4.25;;;;;;;11.34;100.00;101169.69;4841914;29;20030;-72
2021/12/30 05:02:22;;;;;;;12.35;3.83;;;;;;;11.34;100.00;101174.16;4827214;29;20062;-73
2021/12/30 05:04:48;;;;;;;16.80;4.60;;;;;;;11.29;100.00;101169.91;4838433;29;20061;-71
2021/12/30 05:07:13;;;;;;;15.88;4.28;;;;;;;11.28;100.00;101173.50;4841931;29;20037;-72
2021/12/30 05:09:38;;;;;;;13.02;4.13;;;;;;;11.30;100.00;101162.81;4841459;29;20547;-75
2021/12/30 05:12:04;;;;;;;12.65;4.00;;;;;;;11.34;100.00;101155.59;4834072;29;20034;-71
2021/12/30 05:14:29;;;;;;;16.98;4.13;;;;;;;11.33;100.00;101170.66;4830914;29;20036;-72
2021/12/30 05:17:02;;;;;;;12.68;4.55;;;;;;;11.37;100.00;101163.41;4841741;29;20053;-72
2021/12/30 05:19:27;;;;;;;15.70;4.80;;;;;;;11.35;100.00;101170.59;4841772;29;20105;-72
2021/12/30 05:21:52;;;;;;;13.35;4.47;;;;;;;11.35;100.00;101178.53;4841521;29;20125;-73
2021/12/30 05:24:18;;;;;;;16.90;4.80;;;;;;;11.35;100.00;101149.38;4838535;29;20030;-71
2021/12/30 05:26:43;;;;;;;15.02;5.28;;;;;;;11.38;100.00;101159.84;4837429;29;20090;-72
2021/12/30 05:29:09;;;;;;;13.88;4.80;;;;;;;11.40;100.00;101172.09;4827164;29;20069;-72
2021/12/30 05:31:35;;;;;;;13.50;4.57;;;;;;;11.41;100.00;101167.66;4834118;29;20068;-71
2021/12/30 05:34:00;;;;;;;13.15;4.50;;;;;;;11.41;100.00;101170.31;4844549;29;20094;-72
2021/12/30 05:36:27;;;;;;;15.48;4.05;;;;;;;11.44;100.00;101159.56;4845453;29;20034;-72
2021/12/30 05:38:53;;;;;;;15.73;4.13;;;;;;;11.45;100.00;101162.16;4845521;29;20037;-72
2021/12/30 05:41:18;;;;;;;15.27;3.72;;;;;;;11.48;100.00;101151.44;4844060;29;20026;-72
2021/12/30 05:43:44;;;;;;;10.55;3.40;;;;;;;11.55;100.00;101164.44;4844670;29;20034;-72
2021/12/30 05:46:09;;;;;;;11.02;3.05;;;;;;;11.60;100.00;101154.47;4845525;29;20029;-72
2021/12/30 05:48:34;;;;;;;13.68;3.20;;;;;;;11.61;100.00;101164.13;4845258;29;20778;-71
2021/12/30 05:51:01;;;;;;;12.00;3.80;;;;;;;11.66;100.00;101177.19;4844869;29;20091;-72
2021/12/30 05:53:30;;;;;;;9.95;3.10;;;;;;;11.69;100.00;101196.50;4844446;29;20030;-72
2021/12/30 05:55:56;;;;;;;12.55;2.92;;;;;;;11.72;100.00;101195.50;4845508;29;20022;-72
2021/12/30 05:58:22;;;;;;;10.80;2.92;;;;;;;11.73;100.00;101183.97;4845005;29;20029;-72
2021/12/30 06:00:49;;;;;;;9.85;3.17;;;;;;;11.75;100.00;101200.66;4844900;29;20501;-72
2021/12/30 06:03:18;;;;;;;8.07;2.78;;;;;;;11.75;100.00;101204.19;4844499;29;20038;-72
2021/12/30 06:05:44;;;;;;;9.40;2.85;;;;;;;11.76;100.00;101205.06;4844718;29;20053;-72
2021/12/30 06:08:09;;;;;;;9.27;2.95;;;;;;;11.75;100.00;101190.94;4843098;29;20034;-71
2021/12/30 06:10:34;;;;;;;13.45;3.45;;;;;;;11.79;100.00;101197.81;4845139;29;20497;-72
2021/12/30 06:13:00;;;;;;;9.20;2.45;;;;;;;11.79;100.00;101200.47;4844569;29;20467;-71
2021/12/30 06:15:25;;;;;;;11.65;2.80;;;;;;;11.81;100.00;101216.31;4844123;29;20391;-72
2021/12/30 06:17:50;;;;;;;7.70;2.35;;;;;;;11.81;100.00;101208.38;4844826;29;20082;-72
2021/12/30 06:20:16;;;;;;;8.13;2.40;;;;;;;11.83;100.00;101210.94;4844881;29;20030;-73
2021/12/30 06:22:43;;;;;;;7.63;2.47;;;;;;;11.80;100.00;101218.13;4844159;29;20053;-72
2021/12/30 06:25:09;;;;;;;8.82;2.55;;;;;;;11.81;100.00;101218.97;4840992;29;20030;-71
2021/12/30 06:27:35;;;;;;;8.65;2.85;;;;;;;11.80;100.00;101219.91;4841093;29;20030;-72
2021/12/30 06:30:00;;;;;;;12.63;3.20;;;;;;;11.80;100.00;101190.72;4837459;29;20034;-71
2021/12/30 06:32:26;;;;;;;7.10;3.30;;;;;;;11.75;100.00;101214.81;4843723;29;20037;-72
2021/12/30 06:34:51;;;;;;;10.52;3.58;;;;;;;11.73;100.00;101216.66;4843527;29;20030;-71
2021/12/30 06:37:16;;;;;;;11.05;4.20;;;;;;;11.74;100.00;101213.09;4843594;29;20030;-70
2021/12/30 06:39:42;;;;;;;10.13;4.28;;;;;;;11.69;100.00;101233.66;4844423;29;20030;-71
2021/12/30 06:42:07;;;;;;;11.43;4.65;;;;;;;11.63;100.00;101224.16;4842724;29;20120;-71
2021/12/30 06:44:32;;;;;;;11.27;4.50;;;;;;;11.58;100.00;101235.91;4844007;29;20033;-71
2021/12/30 06:47:00;;;;;;;10.23;4.60;;;;;;;11.55;100.00;101246.66;4840096;29;20454;-72
2021/12/30 06:49:26;;;;;;;11.45;4.80;;;;;;;11.48;100.00;101235.41;4830977;29;20037;-72
2021/12/30 06:51:52;;;;;;;12.00;4.40;;;;;;;11.46;100.00;101254.03;4833743;29;20039;-71
2021/12/30 06:54:17;;;;;;;11.48;4.30;;;;;;;11.45;100.00;101246.16;4835804;29;20033;-72
2021/12/30 06:56:43;;;;;;;9.65;3.60;;;;;;;11.41;100.00;101232.16;4841396;29;20026;-71
2021/12/30 06:59:14;;;;;;;8.60;4.00;;;;;;;11.37;100.00;101264.16;4843791;29;20098;-71
2021/12/30 07:01:40;;;;;;;12.90;4.50;;;;;;;11.36;100.00;101217.38;4841854;29;20034;-70
2021/12/30 07:04:05;;;;;;;13.98;3.70;;;;;;;11.35;100.00;101234.22;4841465;29;20082;-72
2021/12/30 07:06:31;;;;;;;10.60;4.00;;;;;;;11.34;100.00;101251.91;4843586;29;20049;-72
2021/12/30 07:08:56;;;;;;;17.85;5.20;;;;;;;11.34;100.00;101264.31;4843282;29;20037;-71
2021/12/30 07:11:21;;;;;;;17.65;5.47;;;;;;;11.31;100.00;101260.00;4843743;29;20072;-72
2021/12/30 07:13:47;;;;;;;20.65;6.07;;;;;;;11.27;100.00;101238.03;4842469;29;20030;-71
2021/12/30 07:16:12;;;;;;;24.98;6.82;;;;;;;11.24;100.00;101247.91;4832104;29;20985;-71
2021/12/30 07:18:37;;;;;;;18.40;6.63;;;;;;;11.22;100.00;101244.47;4834730;29;20480;-70
2021/12/30 07:21:03;;;;;;;26.10;7.15;;;;;;;11.22;100.00;101250.63;4837840;29;20037;-71
2021/12/30 07:23:28;;;;;;;20.02;6.35;;;;;;;11.22;100.00;101247.97;4836845;29;20030;-71
2021/12/30 07:25:53;;;;;;;25.95;7.13;;;;;;;11.22;100.00;101260.38;4842822;29;20533;-71
2021/12/30 07:28:18;;;;;;;22.85;6.53;;;;;;;11.23;100.00;101248.84;4843941;29;20030;-71
2021/12/30 07:30:44;;;;;;;22.95;6.40;;;;;;;11.23;100.00;101248.84;4842797;29;20105;-72
2021/12/30 07:33:09;;;;;;;18.70;6.32;;;;;;;11.23;100.00;101278.00;4843641;29;20475;-72
2021/12/30 07:35:35;;;;;;;24.27;6.57;;;;;;;11.23;100.00;101285.97;4843199;29;20025;-71
2021/12/30 07:38:02;;;;;;;27.98;6.88;;;;;;;11.20;100.00;101271.06;4842680;29;20364;-72
2021/12/30 07:40:27;;;;;;;26.88;6.35;;;;;;;11.23;100.00;101296.56;4843386;29;20494;-71
2021/12/30 07:42:52;;;;;;;23.05;5.88;;;;;;;11.22;100.00;101311.59;4842636;29;20041;-70
2021/12/30 07:45:18;;;;;;;21.83;5.18;;;;;;;11.21;100.00;101272.75;4841189;29;20425;-71
2021/12/30 07:47:44;;;;;;;21.33;5.70;;;;;;;11.21;100.00;101287.81;4842041;29;20443;-70
2021/12/30 07:50:11;;;;;;;31.02;5.80;;;;;;;11.22;100.00;101274.47;4843342;29;20026;-71
2021/12/30 07:52:37;;;;;;;23.55;6.18;;;;;;;11.21;100.00;101309.84;4842867;29;20510;-72
2021/12/30 07:55:05;;;;;;;26.60;6.30;;;;;;;11.21;100.00;101314.31;4843051;29;20475;-71
2021/12/30 07:57:31;;;;;;;30.95;5.93;;;;;;;11.17;100.00;101287.06;4842405;29;20034;-72
2021/12/30 07:59:56;;;;;;;24.77;5.30;;;;;;;11.19;100.00;101294.94;4843169;29;20033;-70
2021/12/30 08:02:23;;;;;;;30.20;5.47;;;;;;;11.19;100.00;101318.81;4842621;29;20066;-71
2021/12/30 08:04:48;;;;;;;27.00;6.25;;;;;;;11.24;100.00;101303.56;4842919;29;20042;-72
2021/12/30 08:07:19;;;;;;;26.05;6.30;;;;;;;11.28;100.00;101315.81;4842554;29;20049;-71
2021/12/30 08:09:44;;;;;;;24.53;5.50;;;;;;;11.28;100.00;101297.25;4842697;29;20025;-72
2021/12/30 08:12:10;;;;;;;31.27;6.60;;;;;;;11.28;100.00;101321.97;4842712;29;20373;-71
2021/12/30 08:14:35;;;;;;;28.27;6.10;;;;;;;11.26;100.00;101301.75;4842439;29;20127;-71
2021/12/30 08:17:00;;;;;;;27.15;6.53;;;;;;;11.23;100.00;101337.19;4841815;29;20246;-72
2021/12/30 08:19:26;;;;;;;33.47;6.35;;;;;;;11.25;100.00;101337.13;4842391;29;20026;-72
2021/12/30 08:21:51;;;;;;;35.97;5.95;;;;;;;11.25;100.00;101342.41;4842465;29;20114;-72
2021/12/30 08:24:16;;;;;;;24.23;5.50;;;;;;;11.28;100.00;101329.91;4842259;29;20401;-73
2021/12/30 08:26:42;;;;;;;37.05;6.45;;;;;;;11.25;100.00;101347.72;4842819;29;20040;-71
2021/12/30 08:29:07;;;;;;;28.27;7.10;;;;;;;11.28;100.00;101326.41;4842245;29;20034;-72
2021/12/30 08:31:34;;;;;;;40.30;6.85;;;;;;;11.29;100.00;101359.94;4842320;29;20105;-72
2021/12/30 08:34:00;;;;;;;38.55;6.95;;;;;;;11.28;100.00;101367.03;4842569;29;20030;-74
2021/12/30 08:36:25;;;;;;;34.72;5.95;;;;;;;11.27;100.00;101336.13;4842148;29;20022;-70
2021/12/30 08:38:50;;;;;;;31.40;5.45;;;;;;;11.29;100.00;101346.66;4832455;29;20113;-71
2021/12/30 08:41:16;;;;;;;33.05;6.10;;;;;;;11.28;100.00;101350.28;4842250;29;20120;-73
2021/12/30 08:43:41;;;;;;;29.48;6.28;;;;;;;11.27;100.00;101346.75;4840451;29;20034;-74
2021/12/30 08:46:06;;;;;;;28.27;5.25;;;;;;;11.30;100.00;101340.44;4842032;29;20090;-74
2021/12/30 08:48:32;;;;;;;31.25;6.18;;;;;;;11.32;100.00;101368.63;4841478;29;20511;-73
2021/12/30 08:50:57;;;;;;;28.50;5.40;;;;;;;11.35;100.00;101342.94;4841621;29;20065;-71
2021/12/30 08:53:25;;;;;;;37.88;6.30;;;;;;;11.36;100.00;101365.88;4840439;29;20473;-72
2021/12/30 08:55:52;;;;;;;28.63;5.43;;;;;;;11.35;100.00;101372.09;4833601;29;20095;-70
2021/12/30 08:58:17;;;;;;;25.30;5.10;;;;;;;11.41;100.00;101348.84;4823690;29;20105;-71
2021/12/30 09:00:46;;;;;;;36.03;6.35;;;;;;;11.42;100.00;101377.09;4838291;29;20125;-71
2021/12/30 09:03:12;;;;;;;30.33;5.20;;;;;;;11.45;100.00;101370.81;4841287;29;20040;-71
2021/12/30 09:05:37;;;;;;;30.38;5.40;;;;;;;11.47;100.00;101366.28;4841766;29;20058;-71
2021/12/30 09:08:04;;;;;;;29.00;5.07;;;;;;;11.52;100.00;101380.25;4840973;29;20044;-72
2021/12/30 09:10:33;;;;;;;27.67;4.40;;;;;;;11.56;100.00;101381.84;4842090;29;20052;-71
2021/12/30 09:12:59;;;;;;;23.80;4.85;;;;;;;11.60;100.00;101382.59;4840983;29;20395;-71
2021/12/30 09:15:25;;;;;;;34.30;6.63;;;;;;;11.69;100.00;101360.09;4841394;29;20028;-70
2021/12/30 09:17:52;;;;;;;24.52;5.47;;;;;;;11.74;100.00;101382.00;4841168;29;20030;-72
2021/12/30 09:20:18;;;;;;;30.30;5.57;;;;;;;11.75;100.00;101357.22;4836009;29;20065;-70
2021/12/30 09:22:44;;;;;;;27.90;5.15;;;;;;;11.77;100.00;101376.59;4839301;29;20045;-71
2021/12/30 09:25:11;;;;;;;26.52;5.70;;;;;;;11.80;100.00;101384.41;4841668;29;20022;-72
2021/12/30 09:27:40;;;;;;;29.15;5.43;;;;;;;11.80;100.00;101393.25;4841070;29;20102;-72
2021/12/30 09:30:10;;;;;;;28.45;4.95;;;;;;;11.80;100.00;101360.53;4840359;29;20045;-71
2021/12/30 09:32:35;;;;;;;27.63;4.63;;;;;;;11.80;100.00;101398.56;4840956;29;20038;-71
2021/12/30 09:35:01;;;;;;;28.80;5.57;;;;;;;11.71;100.00;101384.78;4841398;29;20078;-71
2021/12/30 09:37:26;;;;;;;25.30;5.45;;;;;;;11.66;100.00;101390.28;4841302;29;20033;-70
2021/12/30 09:39:52;;;;;;;30.67;5.90;;;;;;;11.62;100.00;101399.28;4841351;29;20037;-70
2021/12/30 09:42:19;;;;;;;27.08;5.53;;;;;;;11.60;100.00;101390.56;4841542;29;20038;-71
2021/12/30 09:44:44;;;;;;;31.95;6.15;;;;;;;11.59;100.00;101399.44;4841560;29;20129;-71
2021/12/30 09:47:11;;;;;;;29.35;5.22;;;;;;;11.55;100.00;101413.75;4841295;29;20522;-71
2021/12/30 09:49:36;;;;;;;20.30;4.80;;;;;;;11.56;100.00;101418.09;4841663;29;20038;-71
2021/12/30 09:52:02;;;;;;;30.15;5.30;;;;;;;11.55;100.00;101421.69;4841160;29;20526;-72
2021/12/30 09:54:27;;;;;;;29.92;5.53;;;;;;;11.52;100.00;101417.38;4835700;29;20091;-72
2021/12/30 09:56:53;;;;;;;24.00;4.40;;;;;;;11.57;100.00;101385.34;4841397;29;20060;-70
2021/12/30 09:59:20;;;;;;;25.15;4.50;;;;;;;11.59;100.00;101399.44;4841749;29;20026;-70
2021/12/30 10:01:45;;;;;;;29.02;4.75;;;;;;;11.63;100.00;101390.41;4841009;29;20027;-72
2021/12/30 10:04:12;;;;;;;27.17;4.47;;;;;;;11.67;100.00;101397.31;4840472;29;20042;-71
2021/12/30 10:06:43;;;;;;;26.55;4.35;;;;;;;11.73;100.00;101404.19;4832886;29;20078;-72
2021/12/30 10:09:14;;;;;;;21.13;4.45;;;;;;;11.74;100.00;101416.50;4841159;29;20063;-70
2021/12/30 10:11:50;;;;;;;18.58;3.88;;;;;;;11.76;100.00;101404.91;4844011;29;20124;-72
2021/12/30 10:14:26;;;;;;;23.25;4.30;;;;;;;11.78;100.00;101405.72;4844782;29;20030;-71
2021/12/30 10:17:11;;;;;;;19.58;4.13;;;;;;;11.75;100.00;101408.50;4843577;29;20064;-70
2021/12/30 10:19:36;;;;;;;24.23;4.55;;;;;;;11.77;100.00;101408.44;4843030;29;20120;-70
2021/12/30 10:22:09;;;;;;;26.30;4.40;;;;;;;11.79;100.00;101410.09;4836140;29;20600;-70
2021/12/30 10:24:34;;;;;;;25.15;4.85;;;;;;;11.76;100.00;101394.28;4826155;29;20034;-71
2021/12/30 10:26:59;;;;;;;31.52;5.63;;;;;;;11.79;100.00;101417.16;4837807;29;20439;-70
2021/12/30 10:29:25;;;;;;;22.88;5.18;;;;;;;11.79;100.00;101417.16;4843892;29;20067;-71
2021/12/30 10:31:53;;;;;;;26.73;4.40;;;;;;;11.77;100.00;101425.19;4840795;29;20041;-71
2021/12/30 10:34:20;;;;;;;28.65;4.80;;;;;;;11.78;100.00;101431.38;4843730;29;20034;-72
2021/12/30 10:36:50;;;;;;;27.40;4.22;;;;;;;11.75;100.00;101432.38;4844296;29;20075;-72
2021/12/30 10:39:24;;;;;;;22.52;4.55;;;;;;;11.76;100.00;101442.03;4842883;29;20030;-71
2021/12/30 10:41:53;;;;;;;28.95;4.75;;;;;;;11.74;100.00;101440.38;4843208;29;20456;-71
2021/12/30 10:44:19;;;;;;;19.52;4.78;;;;;;;11.76;100.00;101434.06;4839742;29;20038;-71
2021/12/30 10:46:46;;;;;;;19.83;4.40;;;;;;;11.77;100.00;101417.25;4840638;29;20053;-71
2021/12/30 10:49:28;;;;;;;20.13;4.60;;;;;;;11.77;100.00;101414.59;4841833;29;20518;-71
2021/12/30 10:51:57;;;;;;;22.35;4.00;;;;;;;11.77;100.00;101425.19;4842348;29;20034;-71
2021/12/30 10:54:28;;;;;;;22.73;4.30;;;;;;;11.78;100.00;101426.94;4843393;29;20026;-70
2021/12/30 10:57:07;;;;;;;14.38;3.50;;;;;;;11.79;100.00;101433.09;4842724;29;20052;-70
2021/12/30 10:59:42;;;;;;;16.52;3.92;;;;;;;11.80;100.00;101424.22;4842903;29;20479;-71
2021/12/30 11:02:17;;;;;;;14.10;3.97;;;;;;;11.80;100.00;101418.91;4841752;29;20487;-71
2021/12/30 11:04:53;;;;;;;15.25;3.85;;;;;;;11.77;100.00;101435.81;4842484;29;20060;-71
2021/12/30 11:07:25;;;;;;;19.48;4.15;;;;;;;11.81;100.00;101386.16;4839869;29;20115;-71